Time;durP1;ratioP1;P1;durP2;ratioP2;P2;SDS_P1;SDS_P2;PMS_P1;PMS_P2;Temp;Humidity;BMP_temperature;BMP_pressure;BME280_temperature;BME280_humidity;BME280_pressure;Samples;Min_cycle;Max_cycle;Signal;HPM_P1;HPM_P2
2021/06/27 00:00:21;;;;;;;4.70;4.23;;;19.30;99.90;;;;;;5056744;28;20967;-82
2021/06/27 00:02:49;;;;;;;10.27;4.60;;;19.20;99.90;;;;;;5057518;28;20860;-82
2021/06/27 00:05:19;;;;;;;7.87;4.50;;;19.20;99.90;;;;;;5056314;28;20904;-82
2021/06/27 00:07:46;;;;;;;5.60;5.17;;;19.10;99.90;;;;;;5056440;28;20432;-81
2021/06/27 00:10:16;;;;;;;9.10;4.93;;;19.10;99.90;;;;;;5055941;28;20474;-79
2021/06/27 00:12:43;;;;;;;5.07;4.60;;;19.00;99.90;;;;;;5060276;28;20458;-81
2021/06/27 00:15:14;;;;;;;4.87;4.33;;;18.90;99.90;;;;;;5075703;28;20447;-79
2021/06/27 00:17:42;;;;;;;4.93;4.53;;;18.90;99.90;;;;;;5064150;28;20490;-80
2021/06/27 00:20:14;;;;;;;4.53;4.13;;;18.90;99.90;;;;;;5058765;28;20448;-82
2021/06/27 00:22:41;;;;;;;3.97;3.60;;;18.90;99.90;;;;;;5059016;28;20792;-81
2021/06/27 00:25:10;;;;;;;5.07;4.67;;;18.90;99.90;;;;;;5055961;28;20467;-80
2021/06/27 00:27:39;;;;;;;4.93;4.53;;;18.70;99.90;;;;;;5056096;28;20460;-81
2021/06/27 00:30:08;;;;;;;5.27;3.13;;;18.90;99.90;;;;;;5055371;28;20453;-81
2021/06/27 00:32:34;;;;;;;4.37;4.00;;;18.90;99.90;;;;;;5055913;28;20460;-80
2021/06/27 00:35:01;;;;;;;5.10;3.90;;;18.90;99.90;;;;;;5054726;28;20531;-81
2021/06/27 00:37:29;;;;;;;4.50;4.10;;;18.80;99.90;;;;;;5055154;28;20485;-81
2021/06/27 00:39:55;;;;;;;4.23;3.70;;;18.90;99.90;;;;;;5055546;28;20819;-80
2021/06/27 00:42:22;;;;;;;5.23;4.20;;;18.90;99.90;;;;;;5056121;28;20461;-80
2021/06/27 00:44:49;;;;;;;4.83;4.40;;;19.00;99.90;;;;;;5056622;28;20472;-81
2021/06/27 00:47:26;;;;;;;5.10;4.10;;;18.90;99.90;;;;;;5057071;28;20487;-81
2021/06/27 00:49:53;;;;;;;3.90;3.30;;;18.90;99.90;;;;;;5056469;28;20457;-79
2021/06/27 00:52:20;;;;;;;4.67;4.30;;;18.90;99.90;;;;;;5058119;28;20451;-81
2021/06/27 00:54:47;;;;;;;4.30;3.70;;;18.90;99.90;;;;;;5062873;28;20521;-79
2021/06/27 00:57:14;;;;;;;4.87;4.37;;;18.80;99.90;;;;;;5062780;28;20425;-79
2021/06/27 00:59:41;;;;;;;5.70;4.40;;;18.70;99.90;;;;;;5062987;28;20492;-80
2021/06/27 01:02:08;;;;;;;4.40;4.00;;;18.70;99.90;;;;;;5060961;28;20919;-81
2021/06/27 01:04:37;;;;;;;6.07;5.50;;;18.60;99.90;;;;;;5061551;28;20524;-81
2021/06/27 01:07:03;;;;;;;3.83;3.50;;;18.60;99.90;;;;;;5060373;28;21009;-82
2021/06/27 01:09:30;;;;;;;4.40;3.90;;;18.50;99.90;;;;;;5061197;28;20465;-81
2021/06/27 01:12:00;;;;;;;4.40;4.10;;;18.60;99.90;;;;;;5059764;28;20438;-81
2021/06/27 01:14:29;;;;;;;5.90;4.27;;;18.50;99.90;;;;;;5059421;28;20524;-81
2021/06/27 01:16:56;;;;;;;7.10;3.47;;;18.60;99.90;;;;;;5059892;28;20467;-82
2021/06/27 01:19:23;;;;;;;5.00;4.43;;;18.50;99.90;;;;;;5060348;28;20485;-81
2021/06/27 01:21:53;;;;;;;4.00;3.60;;;18.50;99.90;;;;;;5059945;28;20848;-81
2021/06/27 01:24:20;;;;;;;5.50;4.40;;;18.50;99.90;;;;;;5059542;28;20469;-80
2021/06/27 01:26:47;;;;;;;4.67;4.37;;;18.50;99.90;;;;;;5064138;28;20477;-80
2021/06/27 01:29:14;;;;;;;5.27;3.70;;;18.40;99.90;;;;;;5073194;28;20496;-79
2021/06/27 01:31:42;;;;;;;4.57;3.60;;;18.40;99.90;;;;;;5074041;28;20442;-79
2021/06/27 01:34:09;;;;;;;5.50;3.30;;;18.50;99.90;;;;;;5072802;28;20462;-83
2021/06/27 01:36:36;;;;;;;4.17;3.87;;;18.60;99.90;;;;;;5072792;28;20460;-83
2021/06/27 01:39:05;;;;;;;4.27;3.93;;;18.60;99.90;;;;;;5074044;28;20465;-80
2021/06/27 01:41:31;;;;;;;4.53;4.13;;;18.60;99.90;;;;;;5078346;28;20443;-80
2021/06/27 01:43:58;;;;;;;4.10;3.80;;;18.30;99.90;;;;;;5078597;28;20447;-80
2021/06/27 01:46:30;;;;;;;7.07;3.70;;;18.40;99.90;;;;;;5078903;28;20475;-80
2021/06/27 01:48:57;;;;;;;5.30;4.73;;;18.50;99.90;;;;;;5078368;28;20447;-80
2021/06/27 01:51:24;;;;;;;6.00;5.10;;;18.40;99.90;;;;;;5077694;28;20441;-80
2021/06/27 01:53:50;;;;;;;4.30;4.00;;;18.40;99.90;;;;;;5074589;28;20447;-82
2021/06/27 01:56:18;;;;;;;5.47;4.90;;;18.40;99.90;;;;;;5073174;28;20453;-82
2021/06/27 01:58:51;;;;;;;5.03;4.53;;;18.30;99.90;;;;;;5071619;28;20447;-82
2021/06/27 02:01:20;;;;;;;3.93;3.53;;;18.30;99.90;;;;;;5072696;28;20439;-82
2021/06/27 02:03:50;;;;;;;4.10;3.80;;;18.30;99.90;;;;;;5070127;28;20537;-80
2021/06/27 02:06:17;;;;;;;4.43;4.13;;;18.30;99.90;;;;;;5074166;28;20549;-81
2021/06/27 02:08:44;;;;;;;6.93;4.27;;;18.30;99.90;;;;;;5072156;28;20526;-82
2021/06/27 02:11:13;;;;;;;4.07;3.57;;;18.30;99.90;;;;;;5073334;28;20438;-82
2021/06/27 02:13:42;;;;;;;5.73;4.17;;;18.30;99.90;;;;;;5074404;28;20443;-82
2021/06/27 02:16:10;;;;;;;3.80;3.50;;;18.20;99.90;;;;;;5073323;28;20478;-81
2021/06/27 02:18:39;;;;;;;3.93;3.40;;;18.10;99.90;;;;;;5076945;28;20442;-80
2021/06/27 02:21:09;;;;;;;3.97;3.67;;;18.00;99.90;;;;;;5076466;28;20422;-82
2021/06/27 02:23:38;;;;;;;5.17;4.00;;;18.10;99.90;;;;;;5069757;28;20447;-82
2021/06/27 02:26:05;;;;;;;4.63;4.23;;;17.90;99.90;;;;;;5071524;28;20485;-82
2021/06/27 02:28:32;;;;;;;5.10;4.50;;;17.90;99.90;;;;;;5071539;28;20466;-81
2021/06/27 02:31:01;;;;;;;9.40;5.00;;;17.80;99.90;;;;;;5070751;28;20472;-82
2021/06/27 02:33:28;;;;;;;6.37;4.90;;;17.90;99.90;;;;;;5071656;28;20450;-83
2021/06/27 02:35:55;;;;;;;4.97;4.47;;;17.90;99.90;;;;;;5071189;28;20527;-81
2021/06/27 02:38:25;;;;;;;8.67;5.33;;;17.80;99.90;;;;;;5071786;28;20504;-82
2021/06/27 02:40:55;;;;;;;5.90;4.57;;;17.80;99.90;;;;;;5072453;28;20442;-82
2021/06/27 02:43:22;;;;;;;4.07;3.77;;;17.70;99.90;;;;;;5075613;28;20439;-80
2021/06/27 02:45:51;;;;;;;4.33;3.93;;;17.70;99.90;;;;;;5075509;28;20489;-80
2021/06/27 02:48:22;;;;;;;4.77;4.37;;;17.70;99.90;;;;;;5076449;28;20473;-81
2021/06/27 02:50:51;;;;;;;7.97;4.73;;;17.60;99.90;;;;;;5077220;28;20437;-80
2021/06/27 02:53:18;;;;;;;4.73;4.13;;;17.60;99.90;;;;;;5078772;28;20437;-82
2021/06/27 02:55:45;;;;;;;5.20;4.70;;;17.50;99.90;;;;;;5078981;28;20489;-80
2021/06/27 02:58:12;;;;;;;4.73;4.33;;;17.50;99.90;;;;;;5079423;28;20618;-80
2021/06/27 03:00:38;;;;;;;7.10;4.70;;;17.50;99.90;;;;;;5078303;28;20418;-82
2021/06/27 03:03:05;;;;;;;4.50;4.10;;;17.50;99.90;;;;;;5076182;28;20842;-81
2021/06/27 03:05:33;;;;;;;8.10;4.23;;;17.50;99.90;;;;;;5073366;28;20469;-82
2021/06/27 03:07:59;;;;;;;4.63;4.23;;;17.40;99.90;;;;;;5079169;28;20536;-79
2021/06/27 03:10:26;;;;;;;4.90;4.40;;;17.40;99.90;;;;;;5079313;28;20436;-79
2021/06/27 03:12:53;;;;;;;5.10;4.60;;;17.40;99.90;;;;;;5079135;28;20501;-82
2021/06/27 03:15:21;;;;;;;5.00;4.50;;;17.40;99.90;;;;;;5077310;28;20561;-82
2021/06/27 03:17:48;;;;;;;8.23;5.50;;;17.40;99.90;;;;;;5077190;28;20450;-81
2021/06/27 03:20:16;;;;;;;5.10;4.50;;;17.50;99.90;;;;;;5070834;28;20445;-83
2021/06/27 03:22:46;;;;;;;5.10;4.70;;;17.50;99.90;;;;;;5067468;28;20446;-82
2021/06/27 03:25:14;;;;;;;8.13;6.00;;;17.50;99.90;;;;;;5068899;28;20496;-80
2021/06/27 03:27:41;;;;;;;4.97;4.47;;;17.50;99.90;;;;;;5068648;28;20481;-80
2021/06/27 03:30:09;;;;;;;5.00;4.50;;;17.60;99.90;;;;;;5068540;28;20450;-81
2021/06/27 03:32:36;;;;;;;5.10;4.50;;;17.60;99.90;;;;;;5067609;28;20477;-82
2021/06/27 03:35:03;;;;;;;4.63;4.23;;;17.60;99.90;;;;;;5080932;22;20524;-78
2021/06/27 03:37:31;;;;;;;8.33;4.80;;;17.50;99.90;;;;;;5074537;28;20437;-78
2021/06/27 03:39:59;;;;;;;4.97;4.53;;;17.50;99.90;;;;;;5075050;28;20714;-78
2021/06/27 03:42:27;;;;;;;5.73;4.60;;;17.50;99.90;;;;;;5074740;28;20881;-78
2021/06/27 03:44:53;;;;;;;4.73;4.20;;;17.60;99.90;;;;;;5078055;28;20564;-77
2021/06/27 03:47:20;;;;;;;7.03;4.83;;;17.70;99.90;;;;;;5085647;28;20485;-77
2021/06/27 03:49:46;;;;;;;5.80;4.53;;;17.70;99.90;;;;;;5086173;28;20444;-77
2021/06/27 03:52:13;;;;;;;4.43;4.03;;;17.70;99.90;;;;;;5083788;28;20805;-78
2021/06/27 03:54:39;;;;;;;4.70;4.30;;;17.70;99.90;;;;;;5085881;28;20471;-78
2021/06/27 03:57:08;;;;;;;4.40;4.10;;;17.80;99.90;;;;;;5090502;28;20438;-78
2021/06/27 03:59:34;;;;;;;7.03;4.20;;;17.90;99.90;;;;;;5092024;28;20447;-78
2021/06/27 04:02:01;;;;;;;4.60;3.77;;;18.00;99.90;;;;;;5086112;28;20477;-77
2021/06/27 04:04:27;;;;;;;4.90;4.50;;;18.00;99.90;;;;;;5086034;28;20445;-78
2021/06/27 04:06:54;;;;;;;4.77;4.37;;;17.90;99.90;;;;;;5086453;28;21057;-78
2021/06/27 04:09:21;;;;;;;4.93;4.43;;;18.00;99.90;;;;;;5087048;28;20471;-77
2021/06/27 04:11:47;;;;;;;6.43;4.13;;;18.00;99.90;;;;;;5085237;28;20916;-78
2021/06/27 04:14:15;;;;;;;3.87;3.47;;;18.00;99.90;;;;;;5083925;28;20455;-77
2021/06/27 04:16:42;;;;;;;4.23;3.93;;;18.10;99.90;;;;;;5083263;28;20473;-78
2021/06/27 04:19:08;;;;;;;6.00;5.40;;;18.00;99.90;;;;;;5084456;28;20445;-77
2021/06/27 04:21:35;;;;;;;4.40;4.10;;;18.00;99.90;;;;;;5085443;28;20992;-76
2021/06/27 04:24:01;;;;;;;4.33;3.87;;;18.00;99.90;;;;;;5085017;28;20545;-78
2021/06/27 04:26:28;;;;;;;4.73;4.43;;;18.00;99.90;;;;;;5085321;28;20500;-77
2021/06/27 04:28:54;;;;;;;4.63;4.07;;;18.10;99.90;;;;;;5088365;28;20453;-79
2021/06/27 04:31:22;;;;;;;5.43;4.03;;;18.20;99.90;;;;;;5080141;28;20496;-79
2021/06/27 04:33:49;;;;;;;4.77;4.17;;;18.30;99.90;;;;;;5079137;28;20448;-79
2021/06/27 04:36:17;;;;;;;5.27;4.80;;;18.30;99.90;;;;;;5079004;28;20473;-79
2021/06/27 04:38:44;;;;;;;4.03;3.63;;;18.20;99.90;;;;;;5079540;28;20841;-79
2021/06/27 04:41:10;;;;;;;4.83;4.30;;;18.30;99.90;;;;;;5079893;28;20518;-79
2021/06/27 04:43:37;;;;;;;4.50;4.00;;;18.30;99.90;;;;;;5078989;28;20475;-79
2021/06/27 04:46:03;;;;;;;4.87;4.47;;;18.40;99.90;;;;;;5078758;28;20464;-79
2021/06/27 04:48:32;;;;;;;4.53;4.23;;;18.40;99.90;;;;;;5078052;28;21034;-79
2021/06/27 04:50:58;;;;;;;4.50;4.10;;;18.40;99.90;;;;;;5078706;28;20859;-79
2021/06/27 04:53:25;;;;;;;3.97;3.67;;;18.50;99.90;;;;;;5078862;28;20499;-79
2021/06/27 04:55:52;;;;;;;5.50;4.23;;;18.50;99.90;;;;;;5078357;28;20986;-79
2021/06/27 04:58:18;;;;;;;5.72;3.80;;;18.60;99.90;;;;;;5079593;28;20835;-78
2021/06/27 05:00:45;;;;;;;5.03;4.15;;;18.60;99.90;;;;;;5080792;28;20815;-79
2021/06/27 05:03:12;;;;;;;6.07;4.00;;;18.60;99.90;;;;;;5079144;28;20735;-79
2021/06/27 05:05:39;;;;;;;3.77;3.37;;;18.60;99.90;;;;;;5078454;28;20614;-79
2021/06/27 05:08:07;;;;;;;4.90;4.50;;;18.60;99.90;;;;;;5078698;28;20905;-79
2021/06/27 05:10:33;;;;;;;3.83;3.53;;;18.70;99.90;;;;;;5079008;28;20465;-79
2021/06/27 05:13:00;;;;;;;3.80;3.40;;;;;;;;;;5078353;28;20500;-78
2021/06/27 05:15:27;;;;;;;4.10;3.80;;;;;;;;;;5078390;28;20478;-79
2021/06/27 05:17:54;;;;;;;4.67;4.27;;;19.00;99.90;;;;;;5077844;28;20500;-78
2021/06/27 05:20:20;;;;;;;4.73;4.03;;;19.00;99.90;;;;;;5078395;28;20508;-78
2021/06/27 05:22:48;;;;;;;3.87;3.57;;;19.10;99.90;;;;;;5077616;28;20458;-78
2021/06/27 05:25:15;;;;;;;3.97;3.67;;;19.00;99.90;;;;;;5078922;28;20501;-78
2021/06/27 05:27:42;;;;;;;3.20;2.90;;;19.10;99.90;;;;;;5060985;28;20527;-78
2021/06/27 05:30:10;;;;;;;3.27;3.07;;;19.30;99.90;;;;;;5079552;28;20478;-79
2021/06/27 05:32:36;;;;;;;3.30;3.10;;;19.30;99.90;;;;;;5079332;28;20478;-78
2021/06/27 05:35:04;;;;;;;4.33;3.83;;;19.40;99.90;;;;;;5079498;28;20510;-78
2021/06/27 05:37:31;;;;;;;6.40;4.93;;;19.40;99.90;;;;;;5079278;28;20482;-78
2021/06/27 05:39:59;;;;;;;8.23;6.43;;;19.50;99.90;;;;;;5079397;28;20474;-79
2021/06/27 05:42:25;;;;;;;3.80;3.47;;;19.50;99.90;;;;;;5080698;28;20791;-78
2021/06/27 05:44:52;;;;;;;5.30;3.03;;;19.40;99.90;;;;;;5078730;28;20473;-78
2021/06/27 05:47:18;;;;;;;4.33;3.27;;;19.60;99.90;;;;;;5078761;28;20476;-78
2021/06/27 05:49:45;;;;;;;4.70;3.43;;;19.60;99.90;;;;;;5078422;28;20442;-78
2021/06/27 05:52:12;;;;;;;3.77;3.47;;;19.60;99.90;;;;;;5079992;28;20446;-78
2021/06/27 05:54:38;;;;;;;5.07;3.60;;;19.30;99.90;;;;;;5081451;28;20441;-78
2021/06/27 05:57:07;;;;;;;3.60;3.30;;;19.70;99.90;;;;;;5081786;28;20540;-78
2021/06/27 05:59:33;;;;;;;3.22;3.03;;;19.80;99.90;;;;;;5081076;28;20489;-78
2021/06/27 06:02:00;;;;;;;3.93;3.30;;;19.80;99.90;;;;;;5081323;28;20249;-78
2021/06/27 06:04:28;;;;;;;4.90;3.20;;;19.90;99.90;;;;;;5081467;28;20445;-78
2021/06/27 06:06:55;;;;;;;19.47;16.63;;;19.90;99.90;;;;;;5079950;28;20524;-78
2021/06/27 06:09:21;;;;;;;4.00;3.60;;;20.00;99.90;;;;;;5080851;28;20560;-78
2021/06/27 06:11:48;;;;;;;21.30;17.67;;;19.90;99.90;;;;;;5080816;28;20448;-78
2021/06/27 06:14:16;;;;;;;3.60;3.40;;;19.90;99.90;;;;;;5081597;28;20449;-78
2021/06/27 06:16:45;;;;;;;3.77;3.50;;;19.90;99.90;;;;;;5081491;28;20463;-78
2021/06/27 06:19:11;;;;;;;7.93;5.37;;;19.90;99.90;;;;;;5081885;28;20504;-78
2021/06/27 06:21:38;;;;;;;3.10;2.90;;;20.00;99.90;;;;;;5079604;28;20863;-79
2021/06/27 06:24:06;;;;;;;3.07;2.87;;;20.00;99.90;;;;;;5096587;28;20514;-77
2021/06/27 06:26:33;;;;;;;3.87;3.40;;;20.10;99.90;;;;;;5085025;28;20855;-78
2021/06/27 06:28:59;;;;;;;3.10;2.80;;;20.20;99.90;;;;;;5081557;28;20488;-79
2021/06/27 06:31:27;;;;;;;3.37;3.07;;;20.30;99.90;;;;;;5076476;28;20519;-78
2021/06/27 06:33:54;;;;;;;3.60;2.80;;;20.30;99.90;;;;;;5075256;28;20866;-78
2021/06/27 06:36:20;;;;;;;3.07;2.87;;;20.40;99.90;;;;;;5077117;28;20725;-79
2021/06/27 06:38:47;;;;;;;4.07;3.77;;;20.50;99.90;;;;;;5078768;28;20471;-78
2021/06/27 06:41:13;;;;;;;6.90;4.83;;;20.60;99.90;;;;;;5081579;28;20506;-78
2021/06/27 06:43:40;;;;;;;6.20;4.30;;;20.60;99.90;;;;;;5078389;28;20462;-78
2021/06/27 06:46:07;;;;;;;9.77;3.67;;;20.70;99.90;;;;;;5080883;28;20473;-79
2021/06/27 06:48:35;;;;;;;4.40;3.80;;;20.80;99.90;;;;;;5080754;28;20492;-78
2021/06/27 06:51:02;;;;;;;4.17;3.77;;;20.90;99.90;;;;;;5076208;28;20598;-79
2021/06/27 06:53:28;;;;;;;3.60;3.30;;;20.90;99.90;;;;;;5076382;28;20476;-79
2021/06/27 06:55:57;;;;;;;3.77;3.20;;;21.00;99.90;;;;;;5075888;28;20496;-79
2021/06/27 06:58:28;;;;;;;3.70;3.40;;;21.10;99.90;;;;;;5075605;28;20490;-79
2021/06/27 07:00:55;;;;;;;3.33;3.10;;;21.10;99.90;;;;;;5075920;28;20444;-78
2021/06/27 07:03:21;;;;;;;3.17;2.97;;;21.20;99.90;;;;;;5075633;28;20440;-78
2021/06/27 07:05:49;;;;;;;5.10;3.53;;;21.20;99.90;;;;;;5075856;28;20472;-78
2021/06/27 07:08:16;;;;;;;6.93;3.90;;;21.10;99.90;;;;;;5075147;28;20484;-79
2021/06/27 07:10:44;;;;;;;5.13;4.03;;;21.10;99.90;;;;;;5075515;28;20877;-79
2021/06/27 07:13:10;;;;;;;3.77;3.47;;;21.20;99.90;;;;;;5074967;28;20456;-80
2021/06/27 07:15:37;;;;;;;5.30;4.80;;;21.20;99.90;;;;;;5074841;28;20522;-79
2021/06/27 07:18:04;;;;;;;5.97;4.87;;;21.20;99.90;;;;;;5075179;28;20476;-80
2021/06/27 07:20:30;;;;;;;3.67;3.07;;;21.30;99.90;;;;;;5075863;28;20441;-79
2021/06/27 07:22:58;;;;;;;6.87;3.70;;;21.30;99.90;;;;;;5075413;28;20444;-80
2021/06/27 07:25:25;;;;;;;3.63;3.33;;;21.40;99.90;;;;;;5076550;28;20479;-79
2021/06/27 07:27:51;;;;;;;4.20;2.77;;;21.40;99.90;;;;;;5075051;28;20512;-79
2021/06/27 07:30:18;;;;;;;3.00;2.70;;;21.50;99.90;;;;;;5074401;28;20979;-79
2021/06/27 07:32:45;;;;;;;3.80;3.50;;;21.50;99.90;;;;;;5074825;28;20483;-79
2021/06/27 07:35:13;;;;;;;3.70;3.50;;;21.70;99.90;;;;;;5074936;28;20472;-79
2021/06/27 07:37:39;;;;;;;3.50;3.20;;;21.70;99.90;;;;;;5075273;28;20514;-79
2021/06/27 07:40:09;;;;;;;3.87;3.57;;;21.70;99.90;;;;;;5075286;28;20943;-80
2021/06/27 07:42:36;;;;;;;4.30;3.73;;;21.80;99.90;;;;;;5075714;28;20448;-79
2021/06/27 07:45:02;;;;;;;3.63;3.20;;;21.80;99.90;;;;;;5075311;28;20465;-79
2021/06/27 07:47:29;;;;;;;3.33;3.10;;;21.90;99.90;;;;;;5075433;28;20448;-79
2021/06/27 07:49:55;;;;;;;3.63;3.33;;;21.90;99.90;;;;;;5075499;28;20451;-79
2021/06/27 07:52:22;;;;;;;3.50;3.20;;;22.00;99.90;;;;;;5075266;28;20489;-79
2021/06/27 07:54:49;;;;;;;4.00;3.80;;;22.10;99.90;;;;;;5074577;28;20488;-79
2021/06/27 07:57:19;;;;;;;3.80;3.50;;;22.10;99.90;;;;;;5074997;28;20476;-79
2021/06/27 07:59:46;;;;;;;4.00;3.70;;;22.20;99.90;;;;;;5075164;28;20476;-79
2021/06/27 08:02:13;;;;;;;3.67;3.47;;;22.20;99.90;;;;;;5077786;28;20448;-79
2021/06/27 08:04:39;;;;;;;3.97;3.67;;;22.10;99.90;;;;;;5083640;28;20471;-79
2021/06/27 08:07:06;;;;;;;4.13;3.77;;;22.20;99.90;;;;;;5082884;28;20449;-78
2021/06/27 08:09:33;;;;;;;4.90;4.40;;;22.30;99.90;;;;;;5081971;28;20480;-79
2021/06/27 08:11:59;;;;;;;3.77;3.47;;;22.30;99.90;;;;;;5080253;28;20482;-79
2021/06/27 08:14:27;;;;;;;5.47;4.13;;;22.40;99.90;;;;;;5079605;28;20510;-79
2021/06/27 08:16:54;;;;;;;3.40;3.20;;;22.50;99.90;;;;;;5079499;28;20769;-78
2021/06/27 08:19:20;;;;;;;6.23;3.50;;;22.60;99.90;;;;;;5079018;28;20792;-79
2021/06/27 08:21:47;;;;;;;4.23;3.10;;;22.60;99.90;;;;;;5079281;28;20437;-79
2021/06/27 08:24:13;;;;;;;7.50;3.40;;;22.60;99.90;;;;;;5079096;28;20476;-80
2021/06/27 08:26:40;;;;;;;4.70;3.63;;;22.60;99.90;;;;;;5077865;28;20469;-79
2021/06/27 08:29:07;;;;;;;5.70;3.77;;;22.50;99.90;;;;;;5078933;28;20477;-79
2021/06/27 08:31:35;;;;;;;3.67;3.30;;;22.60;99.90;;;;;;5078596;28;20958;-79
2021/06/27 08:34:01;;;;;;;9.10;4.47;;;22.70;99.90;;;;;;5078902;28;20448;-79
2021/06/27 08:36:29;;;;;;;3.63;3.33;;;22.70;99.90;;;;;;5078652;28;20472;-79
2021/06/27 08:38:56;;;;;;;8.77;7.87;;;22.60;99.90;;;;;;5079786;28;20519;-79
2021/06/27 08:41:23;;;;;;;4.60;4.20;;;22.40;99.90;;;;;;5079394;28;20981;-79
2021/06/27 08:43:50;;;;;;;4.40;4.03;;;22.70;99.90;;;;;;5080461;28;20452;-79
2021/06/27 08:46:17;;;;;;;4.07;3.77;;;22.70;99.90;;;;;;5078353;28;20465;-79
2021/06/27 08:48:45;;;;;;;5.37;3.60;;;22.80;99.90;;;;;;5078537;28;20512;-79
2021/06/27 08:51:13;;;;;;;7.63;6.37;;;22.80;99.90;;;;;;5097685;28;20476;-78
2021/06/27 08:53:41;;;;;;;4.60;4.20;;;23.00;99.90;;;;;;5092241;28;20453;-80
2021/06/27 08:56:09;;;;;;;4.03;3.60;;;23.10;99.90;;;;;;5079438;28;20478;-80
2021/06/27 08:58:38;;;;;;;5.00;3.80;;;23.10;99.90;;;;;;5078756;28;20440;-79
2021/06/27 09:01:07;;;;;;;4.10;3.80;;;23.20;99.90;;;;;;5077977;28;20445;-81
2021/06/27 09:03:34;;;;;;;4.93;4.43;;;23.20;99.90;;;;;;5078716;28;20448;-81
2021/06/27 09:06:02;;;;;;;8.43;5.33;;;23.10;99.90;;;;;;5078818;28;20468;-81
2021/06/27 09:08:28;;;;;;;4.53;4.13;;;23.10;99.90;;;;;;5079351;28;20480;-81
2021/06/27 09:10:55;;;;;;;4.03;3.63;;;23.10;99.90;;;;;;5080328;28;20528;-80
2021/06/27 09:13:38;;;;;;;7.53;4.93;;;23.10;99.90;;;;;;5085519;28;20458;-80
2021/06/27 09:16:19;;;;;;;5.73;5.20;;;23.10;99.90;;;;;;5087676;28;20469;-80
2021/06/27 09:18:46;;;;;;;7.23;6.40;;;23.20;99.90;;;;;;5092067;28;20410;-81
2021/06/27 09:21:14;;;;;;;4.07;3.70;;;23.30;99.90;;;;;;5084270;28;20456;-79
2021/06/27 09:23:42;;;;;;;5.60;3.10;;;23.10;99.90;;;;;;5091960;28;20460;-78
2021/06/27 09:26:09;;;;;;;8.83;3.30;;;23.10;99.90;;;;;;5088690;28;20476;-81
2021/06/27 09:28:45;;;;;;;6.80;3.60;;;23.10;99.90;;;;;;5093259;28;20472;-81
2021/06/27 09:31:36;;;;;;;4.90;4.20;;;23.20;99.90;;;;;;5084258;28;20444;-79
2021/06/27 09:34:05;;;;;;;4.77;4.37;;;23.30;99.90;;;;;;5083124;28;20491;-79
2021/06/27 09:36:33;;;;;;;4.77;4.37;;;23.40;99.90;;;;;;5081277;28;20474;-79
2021/06/27 09:39:09;;;;;;;4.37;3.70;;;23.50;99.90;;;;;;5084379;28;20441;-81
2021/06/27 09:41:37;;;;;;;11.30;8.83;;;23.50;99.90;;;;;;5080263;28;20425;-80
2021/06/27 09:44:05;;;;;;;7.57;5.57;;;23.60;99.90;;;;;;5078936;28;20946;-81
2021/06/27 09:46:35;;;;;;;4.70;4.40;;;23.80;99.90;;;;;;5079209;28;20470;-81
2021/06/27 09:49:05;;;;;;;3.77;3.50;;;23.60;99.90;;;;;;5078932;28;20534;-80
2021/06/27 09:51:35;;;;;;;6.60;5.30;;;23.60;99.90;;;;;;5078481;28;20809;-81
2021/06/27 09:54:02;;;;;;;7.03;5.20;;;23.70;99.90;;;;;;5078252;28;20495;-81
2021/06/27 09:56:36;;;;;;;5.00;4.60;;;23.80;99.90;;;;;;5077946;28;20472;-80
2021/06/27 09:59:05;;;;;;;4.60;4.20;;;23.90;99.90;;;;;;5078466;28;20434;-81
2021/06/27 10:01:34;;;;;;;5.20;4.70;;;23.90;99.90;;;;;;5080241;28;20459;-81
2021/06/27 10:04:02;;;;;;;4.00;3.60;;;23.90;99.90;;;;;;5079106;28;20495;-81
2021/06/27 10:06:33;;;;;;;5.07;4.67;;;23.90;99.90;;;;;;5078080;28;20500;-81
2021/06/27 10:09:15;;;;;;;7.97;6.53;;;24.10;99.90;;;;;;5081459;28;20865;-81
2021/06/27 10:11:59;;;;;;;5.77;4.43;;;24.20;99.90;;;;;;5081428;28;20456;-81
2021/06/27 10:14:27;;;;;;;4.70;4.30;;;24.20;99.90;;;;;;5079875;28;20523;-81
2021/06/27 10:16:55;;;;;;;4.00;3.70;;;24.70;99.90;;;;;;5080108;28;20453;-81
2021/06/27 10:19:22;;;;;;;4.13;3.70;;;24.40;99.90;;;;;;5079256;28;20504;-81
2021/06/27 10:21:52;;;;;;;3.67;3.30;;;24.50;99.90;;;;;;5079856;28;20504;-81
2021/06/27 10:24:21;;;;;;;4.07;3.17;;;24.60;99.90;;;;;;5080702;28;20454;-81
2021/06/27 10:26:50;;;;;;;5.43;3.27;;;24.50;99.90;;;;;;5083029;28;20945;-81
2021/06/27 10:29:23;;;;;;;3.77;3.47;;;24.50;99.90;;;;;;5078422;28;20560;-81
2021/06/27 10:31:53;;;;;;;5.43;4.37;;;24.10;99.90;;;;;;5077827;28;20441;-81
2021/06/27 10:34:20;;;;;;;4.90;3.37;;;24.10;99.90;;;;;;5077671;28;20484;-81
2021/06/27 10:36:51;;;;;;;6.57;5.30;;;24.10;99.90;;;;;;5076733;28;20461;-80
2021/06/27 10:39:20;;;;;;;8.50;4.20;;;24.40;99.90;;;;;;5077425;28;20426;-81
2021/06/27 10:41:51;;;;;;;4.63;4.20;;;24.50;99.90;;;;;;5076716;28;20450;-81
2021/06/27 10:44:18;;;;;;;3.50;3.20;;;24.70;99.90;;;;;;5077233;28;20447;-81
2021/06/27 10:46:46;;;;;;;7.60;3.53;;;24.70;99.90;;;;;;5076729;28;20463;-81
2021/06/27 10:50:04;;;;;;;3.43;3.13;;;24.80;99.90;;;;;;5077013;28;20486;-80
2021/06/27 10:52:59;;;;;;;3.60;3.30;;;24.80;99.90;;;;;;5077367;28;20532;-81
2021/06/27 10:55:28;;;;;;;3.60;3.30;;;24.80;99.90;;;;;;5079844;28;20474;-80
2021/06/27 10:57:59;;;;;;;4.53;4.10;;;24.80;99.90;;;;;;5077007;28;20455;-80
2021/06/27 11:00:27;;;;;;;3.33;3.10;;;24.90;99.90;;;;;;5076709;28;20431;-81
2021/06/27 11:02:53;;;;;;;6.50;5.70;;;24.80;99.90;;;;;;5077133;28;20569;-81
2021/06/27 11:05:43;;;;;;;4.03;3.60;;;24.90;99.90;;;;;;5077046;28;20581;-81
2021/06/27 11:08:14;;;;;;;7.70;6.97;;;25.00;99.90;;;;;;5076984;28;20490;-81
2021/06/27 11:10:43;;;;;;;8.00;5.70;;;25.10;99.90;;;;;;5082859;28;20440;-80
2021/06/27 11:13:14;;;;;;;3.97;3.67;;;25.00;99.90;;;;;;5091764;28;20455;-81
2021/06/27 11:16:02;;;;;;;5.20;4.70;;;25.00;99.90;;;;;;5078535;28;20532;-81
2021/06/27 11:18:31;;;;;;;4.30;3.27;;;25.10;99.90;;;;;;5078407;28;20904;-81
2021/06/27 11:21:25;;;;;;;4.67;4.10;;;25.10;99.90;;;;;;5076206;28;20943;-81
2021/06/27 11:24:01;;;;;;;3.50;3.20;;;25.10;99.70;;;;;;5077645;28;20857;-80
2021/06/27 11:26:58;;;;;;;6.23;3.63;;;25.10;98.50;;;;;;5088835;28;20464;-80
2021/06/27 11:29:41;;;;;;;4.97;4.47;;;25.20;99.70;;;;;;5087926;28;20473;-80
2021/06/27 11:32:44;;;;;;;4.77;4.37;;;25.20;99.90;;;;;;5086057;28;20432;-81
2021/06/27 11:35:12;;;;;;;3.77;3.40;;;25.30;99.90;;;;;;5077458;28;20479;-80
2021/06/27 11:37:45;;;;;;;4.27;3.87;;;25.30;97.70;;;;;;5076694;28;20474;-81
2021/06/27 11:40:12;;;;;;;3.50;3.20;;;25.30;98.10;;;;;;5077309;28;20444;-81
2021/06/27 11:42:52;;;;;;;4.07;3.67;;;25.40;99.40;;;;;;5077319;28;20515;-80
2021/06/27 11:45:49;;;;;;;7.20;5.90;;;25.50;99.90;;;;;;5075887;28;20468;-81
2021/06/27 11:48:16;;;;;;;4.13;3.50;;;25.60;99.90;;;;;;5076216;28;20549;-80
2021/06/27 11:50:50;;;;;;;4.77;3.20;;;25.70;98.80;;;;;;5075700;28;20488;-80
2021/06/27 11:53:22;;;;;;;4.80;4.37;;;25.50;99.50;;;;;;5075463;28;20452;-80
2021/06/27 11:56:04;;;;;;;3.50;3.23;;;25.50;99.90;;;;;;5075913;28;21085;-80
2021/06/27 11:58:32;;;;;;;4.23;3.93;;;25.50;98.80;;;;;;5075694;28;20506;-80
2021/06/27 12:01:07;;;;;;;3.27;3.07;;;25.50;98.90;;;;;;5076389;28;20524;-79
2021/06/27 12:03:34;;;;;;;4.10;3.70;;;25.30;97.70;;;;;;5076474;28;20848;-80
2021/06/27 12:06:03;;;;;;;3.43;3.10;;;25.40;98.40;;;;;;5076956;28;21002;-79
2021/06/27 12:08:30;;;;;;;3.17;2.87;;;25.60;97.80;;;;;;5080171;28;20453;-79
2021/06/27 12:11:01;;;;;;;3.57;3.37;;;25.60;98.80;;;;;;5080309;28;20441;-79
2021/06/27 12:13:28;;;;;;;4.23;3.23;;;25.70;98.30;;;;;;5079735;28;20448;-79
2021/06/27 12:15:58;;;;;;;4.00;3.70;;;25.80;98.00;;;;;;5080143;28;20839;-80
2021/06/27 12:18:27;;;;;;;3.43;3.20;;;25.80;99.70;;;;;;5078838;28;20444;-79
2021/06/27 12:20:56;;;;;;;4.57;4.17;;;25.70;97.60;;;;;;5078945;28;20436;-79
2021/06/27 12:23:28;;;;;;;3.60;3.30;;;25.70;97.70;;;;;;5080612;28;20441;-80
2021/06/27 12:26:00;;;;;;;5.60;4.27;;;25.60;98.30;;;;;;5083240;28;20512;-80
2021/06/27 12:28:33;;;;;;;7.93;6.13;;;25.70;97.90;;;;;;5082711;28;20433;-80
2021/06/27 12:31:07;;;;;;;4.13;3.83;;;25.60;97.60;;;;;;5086116;28;20514;-80
2021/06/27 12:33:37;;;;;;;4.17;3.77;;;25.50;98.50;;;;;;5084807;28;20460;-79
2021/06/27 12:36:08;;;;;;;4.03;3.67;;;25.40;97.50;;;;;;5081534;28;20692;-80
2021/06/27 12:38:35;;;;;;;8.50;4.50;;;25.20;97.10;;;;;;5082121;28;20450;-80
2021/06/27 12:41:04;;;;;;;5.20;3.40;;;25.00;97.60;;;;;;5081859;28;20444;-81
2021/06/27 12:43:37;;;;;;;4.17;3.70;;;25.20;99.80;;;;;;5083828;28;20498;-80
2021/06/27 12:46:26;;;;;;;46.13;39.03;;;25.40;99.70;;;;;;5080630;28;20500;-80
2021/06/27 12:49:08;;;;;;;13.40;12.10;;;25.60;97.80;;;;;;5080367;28;20436;-81
2021/06/27 12:51:37;;;;;;;3.53;3.33;;;25.80;98.50;;;;;;5080273;28;20437;-80
2021/06/27 12:54:07;;;;;;;3.93;3.57;;;26.00;98.20;;;;;;5080052;28;20452;-80
2021/06/27 12:56:48;;;;;;;5.57;5.07;;;26.10;97.00;;;;;;5081005;28;20471;-80